Time;durP1;ratioP1;P1;durP2;ratioP2;P2;SDS_P1;SDS_P2;PMS_P1;PMS_P2;Temp;Humidity;BMP_temperature;BMP_pressure;BME280_temperature;BME280_humidity;BME280_pressure;Samples;Min_cycle;Max_cycle;Signal;HPM_P1;HPM_P2
2022/01/04 00:01:12;;;;;;;521.87;495.63;;;8.80;99.90;;;;;;4436644;32;20574;-65
2022/01/04 00:03:41;;;;;;;545.93;517.87;;;8.80;99.90;;;;;;4438676;32;20154;-65
2022/01/04 00:06:11;;;;;;;559.20;530.87;;;8.70;99.90;;;;;;4441666;32;20172;-66
2022/01/04 00:08:43;;;;;;;571.33;540.40;;;8.70;99.90;;;;;;4439702;32;20171;-68
2022/01/04 00:11:16;;;;;;;566.53;537.40;;;8.70;99.90;;;;;;4436667;32;20440;-65
2022/01/04 00:13:45;;;;;;;556.97;527.83;;;8.80;99.90;;;;;;4437092;32;20165;-68
2022/01/04 00:16:12;;;;;;;551.33;522.80;;;8.80;99.90;;;;;;4437066;32;20215;-64
2022/01/04 00:18:46;;;;;;;569.07;539.97;;;8.90;99.90;;;;;;4437859;32;20191;-67
2022/01/04 00:21:15;;;;;;;557.57;529.27;;;8.90;99.90;;;;;;4437031;32;20171;-66
2022/01/04 00:23:43;;;;;;;574.87;545.67;;;9.00;99.90;;;;;;4436899;32;20160;-66
2022/01/04 00:26:12;;;;;;;574.17;543.70;;;9.00;99.90;;;;;;4437277;32;20206;-68
2022/01/04 00:28:41;;;;;;;543.60;516.17;;;9.10;99.90;;;;;;4436096;32;20198;-70
2022/01/04 00:31:10;;;;;;;538.40;510.53;;;9.10;99.90;;;;;;4437026;32;20491;-66
2022/01/04 00:33:39;;;;;;;560.70;532.13;;;9.00;99.90;;;;;;4438453;32;20156;-65
2022/01/04 00:36:11;;;;;;;547.93;520.73;;;9.10;99.90;;;;;;4437072;32;20551;-66
2022/01/04 00:38:42;;;;;;;563.97;535.63;;;9.10;99.90;;;;;;4436009;32;20155;-67
2022/01/04 00:41:12;;;;;;;518.03;491.83;;;9.10;99.90;;;;;;4436569;32;20156;-68
2022/01/04 00:43:39;;;;;;;540.17;513.23;;;9.10;99.90;;;;;;4436870;32;20179;-64
2022/01/04 00:46:07;;;;;;;530.50;504.03;;;9.10;99.90;;;;;;4436713;32;20175;-66
2022/01/04 00:51:19;;;;;;;536.17;509.40;;;9.20;99.90;;;;;;4436606;32;20176;-65
2022/01/04 00:53:46;;;;;;;530.27;503.77;;;9.20;99.90;;;;;;4436869;32;20173;-66
2022/01/04 00:56:13;;;;;;;540.73;513.07;;;9.10;99.90;;;;;;4437579;32;20156;-65
2022/01/04 00:58:40;;;;;;;542.30;514.80;;;9.10;99.90;;;;;;4436150;32;20197;-65
2022/01/04 01:01:06;;;;;;;551.07;523.00;;;9.10;99.90;;;;;;4435948;32;20470;-65
2022/01/04 01:03:35;;;;;;;536.37;509.37;;;9.10;99.90;;;;;;4436006;32;20171;-71
2022/01/04 01:06:01;;;;;;;543.43;516.00;;;9.00;99.90;;;;;;4436833;32;20178;-66
2022/01/04 01:22:01;;;;;;;543.73;516.47;;;8.90;99.90;;;;;;4437560;32;20191;-68
2022/01/04 01:24:35;;;;;;;539.63;512.97;;;9.00;99.90;;;;;;4436738;32;20608;-66
2022/01/04 01:27:04;;;;;;;554.90;527.03;;;9.00;99.90;;;;;;4437242;32;20684;-65
2022/01/04 01:29:32;;;;;;;558.13;529.57;;;9.00;99.90;;;;;;4436309;32;20678;-66
2022/01/04 01:32:02;;;;;;;541.53;513.77;;;9.00;99.90;;;;;;4435647;32;20210;-65
2022/01/04 01:34:31;;;;;;;554.10;525.67;;;9.00;99.90;;;;;;4435698;32;20590;-66
2022/01/04 01:37:02;;;;;;;548.80;521.37;;;9.00;99.90;;;;;;4447075;32;20146;-66
2022/01/04 01:39:34;;;;;;;547.30;519.83;;;9.00;99.90;;;;;;4436007;32;20226;-67
2022/01/04 01:42:02;;;;;;;458.90;437.23;;;9.00;99.90;;;;;;4435552;32;20318;-65
2022/01/04 01:44:31;;;;;;;460.63;438.83;;;9.00;99.90;;;;;;4435740;32;20172;-66
2022/01/04 01:46:58;;;;;;;428.00;407.67;;;9.00;99.90;;;;;;4436118;32;20153;-64
2022/01/04 01:49:25;;;;;;;425.90;406.43;;;9.00;99.90;;;;;;4435360;32;20214;-66
2022/01/04 01:51:55;;;;;;;429.37;409.07;;;9.00;99.90;;;;;;4437085;32;20179;-67
2022/01/04 01:54:24;;;;;;;426.67;407.27;;;8.80;99.90;;;;;;4432416;32;20271;-65
2022/01/04 01:56:54;;;;;;;437.40;416.47;;;8.90;99.90;;;;;;4432124;32;20542;-70
2022/01/04 01:59:21;;;;;;;436.77;416.03;;;8.90;99.90;;;;;;4440710;32;20202;-69
2022/01/04 02:01:48;;;;;;;438.50;417.33;;;9.00;99.90;;;;;;4440854;32;20169;-65
2022/01/04 02:04:15;;;;;;;436.53;416.13;;;8.90;99.90;;;;;;4435770;32;20535;-67
2022/01/04 02:06:48;;;;;;;440.20;419.57;;;8.80;99.90;;;;;;4434823;32;20220;-66
2022/01/04 02:09:15;;;;;;;469.90;447.60;;;8.80;99.90;;;;;;4436033;32;20201;-65
2022/01/04 02:11:44;;;;;;;440.63;419.77;;;8.80;99.90;;;;;;4435530;32;20164;-69
2022/01/04 02:14:11;;;;;;;437.67;417.20;;;8.80;99.90;;;;;;4439956;32;20193;-67
2022/01/04 02:16:41;;;;;;;457.10;435.50;;;8.80;99.90;;;;;;4435826;32;20230;-67
2022/01/04 02:19:09;;;;;;;435.13;414.17;;;8.80;99.90;;;;;;4435276;32;20215;-65
2022/01/04 02:21:40;;;;;;;442.83;422.00;;;8.80;99.90;;;;;;4437706;32;20172;-71
2022/01/04 02:24:07;;;;;;;438.20;417.70;;;8.80;99.90;;;;;;4437278;32;20494;-64
2022/01/04 02:26:34;;;;;;;437.50;417.03;;;8.70;99.90;;;;;;4435753;32;20201;-64
2022/01/04 02:29:02;;;;;;;441.13;420.07;;;8.70;99.90;;;;;;4435501;32;20488;-68
2022/01/04 02:31:29;;;;;;;463.20;441.33;;;8.70;99.90;;;;;;4435041;32;20620;-68
2022/01/04 02:33:56;;;;;;;447.20;426.20;;;8.80;99.90;;;;;;4435396;32;20159;-65
2022/01/04 02:36:30;;;;;;;432.50;412.60;;;8.80;99.90;;;;;;4435543;32;20218;-65
2022/01/04 02:38:58;;;;;;;447.17;426.37;;;8.80;99.90;;;;;;4435296;32;20154;-68
2022/01/04 02:41:31;;;;;;;434.20;414.20;;;8.90;99.90;;;;;;4435482;32;20169;-69
2022/01/04 02:43:58;;;;;;;445.07;424.40;;;8.80;99.90;;;;;;4434819;32;20170;-67
2022/01/04 02:46:24;;;;;;;435.13;414.60;;;8.70;99.90;;;;;;4435773;32;20154;-67
2022/01/04 02:48:51;;;;;;;453.07;431.70;;;8.70;99.90;;;;;;4436337;32;20186;-70
2022/01/04 02:51:19;;;;;;;459.10;437.63;;;8.70;99.90;;;;;;4437087;32;20188;-68
2022/01/04 02:53:46;;;;;;;441.27;420.60;;;8.70;99.90;;;;;;4435078;32;20212;-63
2022/01/04 02:56:17;;;;;;;442.27;421.17;;;8.70;99.90;;;;;;4435308;32;20261;-69
2022/01/04 02:58:53;;;;;;;440.97;420.53;;;8.60;99.90;;;;;;4435589;32;20149;-65
2022/01/04 03:01:20;;;;;;;439.63;418.70;;;8.60;99.90;;;;;;4439335;32;20152;-65
2022/01/04 03:03:47;;;;;;;424.23;404.30;;;8.60;99.90;;;;;;4437627;32;20167;-65
2022/01/04 03:20:23;;;;;;;408.13;389.10;;;8.80;99.90;;;;;;4446164;32;20266;-72
2022/01/04 03:22:56;;;;;;;411.63;392.70;;;8.80;99.90;;;;;;4374923;32;20161;-66
2022/01/04 03:25:29;;;;;;;439.10;418.03;;;8.80;99.90;;;;;;4370969;32;20264;-68
2022/01/04 03:28:10;;;;;;;456.63;434.47;;;8.90;99.90;;;;;;4363539;32;20182;-65
2022/01/04 03:30:40;;;;;;;428.10;407.87;;;8.80;99.90;;;;;;4367622;32;20167;-68
2022/01/04 03:33:06;;;;;;;432.73;412.50;;;8.80;99.90;;;;;;4375108;32;20572;-65
2022/01/04 03:35:40;;;;;;;446.67;426.17;;;8.90;99.90;;;;;;4369583;32;20200;-67
2022/01/04 03:38:06;;;;;;;437.17;416.70;;;8.90;99.90;;;;;;4374035;32;20219;-67
2022/01/04 03:40:36;;;;;;;433.10;412.43;;;9.00;99.90;;;;;;4374764;32;20203;-68
2022/01/04 03:43:03;;;;;;;449.20;427.97;;;9.00;99.90;;;;;;4376684;32;20212;-66
2022/01/04 03:45:30;;;;;;;454.40;433.20;;;8.90;99.90;;;;;;4365512;32;20189;-66
2022/01/04 03:47:57;;;;;;;456.03;434.37;;;8.90;99.90;;;;;;4366165;32;20159;-70
2022/01/04 03:50:30;;;;;;;456.30;434.53;;;8.90;99.90;;;;;;4373590;32;20156;-67
2022/01/04 03:53:03;;;;;;;448.77;427.03;;;8.80;99.90;;;;;;4374714;32;20167;-66
2022/01/04 03:55:30;;;;;;;454.80;433.47;;;8.80;99.90;;;;;;4372964;32;20216;-69
2022/01/04 03:58:02;;;;;;;447.50;426.23;;;8.80;99.90;;;;;;4374477;32;20186;-65
2022/01/04 04:00:29;;;;;;;427.47;406.23;;;8.80;99.90;;;;;;4422670;32;20176;-66
2022/01/04 04:02:56;;;;;;;437.13;416.77;;;8.70;99.90;;;;;;4439230;32;20159;-66
2022/01/04 04:05:23;;;;;;;456.23;433.63;;;8.70;99.90;;;;;;4437124;32;20233;-65
2022/01/04 04:07:52;;;;;;;463.77;441.63;;;8.70;99.90;;;;;;4437079;32;20175;-65
2022/01/04 04:10:21;;;;;;;453.90;432.07;;;8.60;99.90;;;;;;4438517;32;20474;-64
2022/01/04 04:12:50;;;;;;;471.13;448.73;;;8.60;99.90;;;;;;4437435;32;20506;-67
2022/01/04 04:15:23;;;;;;;476.27;453.60;;;8.70;99.90;;;;;;4436940;32;20603;-69
2022/01/04 04:17:54;;;;;;;438.70;418.03;;;8.70;99.90;;;;;;4436797;32;20186;-68
2022/01/04 04:20:23;;;;;;;460.23;438.23;;;8.70;99.90;;;;;;4436876;32;20162;-69
2022/01/04 04:22:52;;;;;;;429.47;409.30;;;8.80;99.90;;;;;;4437252;32;20183;-68
2022/01/04 04:25:20;;;;;;;455.90;434.07;;;8.80;99.90;;;;;;4436733;32;20158;-68
2022/01/04 04:27:47;;;;;;;432.70;412.10;;;8.80;99.90;;;;;;4437137;32;20147;-67
2022/01/04 04:30:15;;;;;;;442.53;421.33;;;8.80;99.90;;;;;;4436468;32;20150;-70
2022/01/04 04:32:44;;;;;;;429.70;409.37;;;8.80;99.90;;;;;;4437497;32;20207;-66
2022/01/04 04:35:14;;;;;;;421.30;401.37;;;8.80;99.90;;;;;;4436959;32;20150;-68
2022/01/04 04:37:41;;;;;;;418.47;398.27;;;8.80;99.90;;;;;;4437082;32;20204;-64
2022/01/04 04:40:12;;;;;;;460.97;439.17;;;8.70;99.90;;;;;;4436739;32;20173;-66
2022/01/04 04:42:40;;;;;;;440.60;419.87;;;8.70;99.90;;;;;;4436699;32;20152;-69
2022/01/04 04:45:10;;;;;;;424.73;404.53;;;8.60;99.90;;;;;;4438105;32;20177;-67
2022/01/04 04:47:37;;;;;;;462.17;440.10;;;8.60;99.90;;;;;;4437906;32;20152;-65
2022/01/04 04:50:10;;;;;;;453.97;432.40;;;8.60;99.90;;;;;;4438414;32;20175;-68
2022/01/04 04:52:43;;;;;;;464.77;442.57;;;8.60;99.90;;;;;;4436655;32;20167;-67
2022/01/04 04:55:15;;;;;;;456.17;434.57;;;8.60;99.90;;;;;;4436732;32;20145;-64
2022/01/04 04:57:45;;;;;;;427.13;406.47;;;8.70;99.90;;;;;;4436028;32;20178;-64
2022/01/04 05:00:18;;;;;;;456.30;434.73;;;8.70;99.90;;;;;;4436376;32;20166;-64
2022/01/04 05:02:51;;;;;;;438.60;417.90;;;8.60;99.90;;;;;;4436237;32;20169;-64
2022/01/04 05:05:21;;;;;;;458.57;436.80;;;8.60;99.90;;;;;;4436622;32;20144;-64
2022/01/04 05:07:51;;;;;;;426.63;406.27;;;8.60;99.90;;;;;;4436010;32;20152;-66
2022/01/04 05:10:20;;;;;;;439.17;418.13;;;8.60;99.90;;;;;;4440988;32;20168;-66
2022/01/04 05:12:53;;;;;;;456.27;434.70;;;8.60;99.90;;;;;;4436505;32;20145;-68
2022/01/04 05:15:19;;;;;;;444.60;423.60;;;8.60;99.90;;;;;;4436313;32;20220;-67
2022/01/04 05:17:48;;;;;;;446.47;425.37;;;8.50;99.90;;;;;;4437192;32;20174;-65
2022/01/04 05:20:18;;;;;;;455.57;433.90;;;8.50;99.90;;;;;;4436190;32;20162;-66
2022/01/04 05:22:47;;;;;;;435.57;415.37;;;8.50;99.90;;;;;;4436660;32;20143;-69
2022/01/04 05:25:23;;;;;;;443.43;422.07;;;8.50;99.90;;;;;;4435875;32;20182;-65
2022/01/04 05:27:51;;;;;;;428.50;408.47;;;8.50;99.90;;;;;;4435768;32;20151;-66
2022/01/04 05:30:18;;;;;;;440.00;419.57;;;8.60;99.90;;;;;;4435802;32;20493;-65
2022/01/04 05:32:48;;;;;;;432.40;412.50;;;8.60;99.90;;;;;;4436599;32;20150;-63
2022/01/04 05:35:18;;;;;;;429.00;409.17;;;8.70;99.90;;;;;;4436179;32;20184;-66
2022/01/04 05:37:48;;;;;;;454.53;432.57;;;8.60;99.90;;;;;;4435774;32;20202;-66
2022/01/04 05:40:17;;;;;;;459.27;437.50;;;8.70;99.90;;;;;;4436180;32;20170;-64
2022/01/04 05:42:44;;;;;;;437.20;417.03;;;8.70;99.90;;;;;;4435131;32;20187;-66
2022/01/04 05:45:20;;;;;;;445.17;424.40;;;8.70;99.90;;;;;;4435690;32;20155;-68
2022/01/04 05:47:56;;;;;;;430.37;410.30;;;8.70;99.90;;;;;;4437567;32;20139;-68
2022/01/04 05:50:31;;;;;;;436.50;416.10;;;8.80;99.90;;;;;;4437471;32;20143;-64
2022/01/04 05:53:00;;;;;;;456.27;434.20;;;8.70;99.90;;;;;;4436683;32;20166;-68
2022/01/04 05:55:32;;;;;;;455.33;433.63;;;8.70;99.90;;;;;;4436693;32;20192;-64
2022/01/04 05:58:03;;;;;;;437.53;416.73;;;8.80;99.90;;;;;;4435538;32;20156;-68
2022/01/04 06:00:40;;;;;;;451.40;429.73;;;8.80;99.90;;;;;;4435771;32;20155;-66
2022/01/04 06:03:07;;;;;;;440.13;419.43;;;8.80;99.90;;;;;;4437334;32;20147;-67
2022/01/04 06:05:40;;;;;;;446.60;425.87;;;8.80;99.90;;;;;;4435646;32;20528;-67
2022/01/04 06:08:11;;;;;;;465.97;443.87;;;8.80;99.90;;;;;;4437590;32;20148;-65
2022/01/04 06:10:40;;;;;;;450.53;429.83;;;8.80;99.90;;;;;;4441644;32;20150;-67
2022/01/04 06:16:09;;;;;;;441.03;420.20;;;8.80;99.90;;;;;;4436256;32;20214;-69
2022/01/04 06:19:04;;;;;;;448.30;427.50;;;8.90;99.90;;;;;;4435668;32;20194;-67
2022/01/04 06:21:44;;;;;;;454.00;432.47;;;8.80;99.90;;;;;;4435870;32;20163;-69
2022/01/04 06:24:16;;;;;;;432.43;412.33;;;8.70;99.90;;;;;;4435653;32;20150;-65
2022/01/04 06:26:49;;;;;;;440.03;419.27;;;8.70;99.90;;;;;;4434579;32;20207;-68
2022/01/04 06:29:22;;;;;;;448.10;427.03;;;8.70;99.90;;;;;;4435640;32;20211;-66
2022/01/04 06:31:53;;;;;;;431.47;411.23;;;8.70;99.90;;;;;;4436826;32;20150;-68
2022/01/04 06:34:23;;;;;;;436.60;415.83;;;8.70;99.90;;;;;;4435747;32;20559;-65
2022/01/04 06:36:50;;;;;;;438.93;418.07;;;8.80;99.90;;;;;;4435510;32;20588;-68
2022/01/04 06:39:21;;;;;;;456.70;434.97;;;8.70;99.90;;;;;;4438197;32;20428;-66
2022/01/04 06:41:54;;;;;;;440.00;419.33;;;8.70;99.90;;;;;;4438572;32;20568;-64
2022/01/04 06:44:28;;;;;;;458.30;436.77;;;8.70;99.90;;;;;;4439712;32;20211;-68
2022/01/04 06:46:59;;;;;;;451.60;430.23;;;8.60;99.90;;;;;;4439590;32;20198;-68
2022/01/04 06:49:28;;;;;;;471.07;448.70;;;8.70;99.90;;;;;;4437980;32;20184;-69
2022/01/04 06:52:00;;;;;;;444.87;423.93;;;8.70;99.90;;;;;;4439977;32;20177;-67
2022/01/04 06:54:29;;;;;;;451.13;430.00;;;8.70;99.90;;;;;;4439113;32;20163;-67
2022/01/04 06:57:03;;;;;;;435.30;415.07;;;8.70;99.90;;;;;;4438621;32;20229;-66
2022/01/04 06:59:40;;;;;;;462.37;440.43;;;8.70;99.90;;;;;;4438332;32;20204;-67
2022/01/04 07:02:10;;;;;;;447.40;426.30;;;8.80;99.90;;;;;;4437931;32;20612;-65
2022/01/04 07:04:37;;;;;;;448.90;427.53;;;8.70;99.90;;;;;;4438997;32;20224;-65
2022/01/04 07:07:14;;;;;;;448.50;427.37;;;8.80;99.90;;;;;;4437665;32;20225;-67
2022/01/04 07:09:44;;;;;;;427.70;406.73;;;8.80;99.90;;;;;;4439259;32;20570;-67
2022/01/04 07:12:14;;;;;;;445.93;424.83;;;8.80;99.90;;;;;;4437665;32;20162;-70
2022/01/04 07:14:44;;;;;;;437.10;415.90;;;8.80;99.90;;;;;;4438378;32;20614;-65
2022/01/04 07:17:15;;;;;;;439.60;418.70;;;8.80;99.90;;;;;;4437249;32;20171;-66
2022/01/04 07:19:49;;;;;;;446.23;424.87;;;8.90;99.90;;;;;;4436873;32;20166;-64
2022/01/04 07:22:17;;;;;;;466.17;443.63;;;8.80;99.90;;;;;;4440370;32;20177;-65
2022/01/04 07:24:47;;;;;;;481.03;457.57;;;8.80;99.90;;;;;;4437459;32;20149;-64
2022/01/04 07:27:24;;;;;;;462.03;439.43;;;8.80;99.90;;;;;;4438052;32;20169;-68
2022/01/04 07:29:55;;;;;;;454.20;432.07;;;8.70;99.90;;;;;;4437778;32;20225;-64
2022/01/04 07:32:23;;;;;;;467.53;445.13;;;8.70;99.90;;;;;;4435663;32;20189;-65
2022/01/04 07:34:59;;;;;;;459.70;438.07;;;8.70;99.90;;;;;;4437261;32;20217;-65
2022/01/04 07:37:26;;;;;;;424.47;404.47;;;8.80;99.90;;;;;;4437315;32;20647;-66
2022/01/04 07:39:53;;;;;;;441.20;420.20;;;8.80;99.90;;;;;;4437359;32;20168;-67
2022/01/04 07:42:20;;;;;;;454.53;433.17;;;8.80;99.90;;;;;;4437504;32;20606;-66
2022/01/04 07:44:51;;;;;;;439.00;418.30;;;8.80;99.90;;;;;;4437069;32;20188;-65
2022/01/04 07:47:34;;;;;;;447.60;426.20;;;8.80;99.90;;;;;;4438251;32;20207;-66
2022/01/04 07:50:03;;;;;;;440.60;419.90;;;8.80;99.90;;;;;;4441248;32;20583;-67
2022/01/04 07:52:32;;;;;;;456.47;434.87;;;8.80;99.90;;;;;;4441797;32;20586;-64
2022/01/04 07:54:58;;;;;;;430.70;409.53;;;8.80;99.90;;;;;;4437596;32;20162;-65
2022/01/04 07:57:32;;;;;;;441.90;420.53;;;8.80;99.90;;;;;;4437461;32;20522;-65
2022/01/04 07:59:59;;;;;;;438.53;417.63;;;8.80;99.90;;;;;;4439516;32;20241;-65
2022/01/04 08:02:30;;;;;;;445.47;424.37;;;8.80;99.90;;;;;;4440015;32;20166;-66
2022/01/04 08:05:01;;;;;;;456.47;434.47;;;8.80;99.90;;;;;;4436694;32;20190;-66
2022/01/04 08:07:31;;;;;;;425.97;405.37;;;8.90;99.90;;;;;;4435314;32;20170;-65
2022/01/04 08:09:59;;;;;;;430.80;410.93;;;8.80;99.90;;;;;;4438395;32;20174;-72
2022/01/04 08:12:35;;;;;;;443.13;422.20;;;8.90;99.90;;;;;;4437851;32;20314;-65
2022/01/04 08:15:06;;;;;;;459.03;436.53;;;8.90;99.90;;;;;;4436792;32;20150;-65
2022/01/04 08:24:21;;;;;;;434.17;413.10;;;8.70;99.90;;;;;;4435957;32;20177;-66
2022/01/04 08:26:50;;;;;;;448.50;426.57;;;8.70;99.90;;;;;;4435727;32;20182;-65
2022/01/04 08:29:34;;;;;;;464.80;442.27;;;8.70;99.90;;;;;;4435940;32;20200;-67
2022/01/04 08:32:01;;;;;;;446.97;425.50;;;8.70;99.90;;;;;;4435975;32;20194;-65
2022/01/04 08:34:32;;;;;;;433.77;412.03;;;8.70;99.90;;;;;;4435932;32;20155;-65
2022/01/04 08:37:02;;;;;;;454.67;432.47;;;8.70;99.90;;;;;;4435375;32;20179;-65
2022/01/04 08:39:31;;;;;;;440.93;420.00;;;8.60;99.90;;;;;;4436897;32;20451;-66
2022/01/04 08:42:02;;;;;;;466.43;443.37;;;8.70;99.90;;;;;;4448522;32;20232;-65
2022/01/04 08:44:36;;;;;;;456.53;434.20;;;8.70;99.90;;;;;;4437424;32;20482;-66
2022/01/04 08:47:03;;;;;;;468.10;445.33;;;8.70;99.90;;;;;;4436955;32;20497;-68
2022/01/04 08:49:34;;;;;;;473.53;450.27;;;8.60;99.90;;;;;;4435176;32;20167;-65
2022/01/04 08:52:12;;;;;;;456.97;434.87;;;8.60;99.90;;;;;;4446292;32;20152;-64
2022/01/04 08:54:53;;;;;;;442.27;420.13;;;8.60;99.90;;;;;;4435584;32;20231;-66
2022/01/04 08:57:20;;;;;;;448.57;427.03;;;8.60;99.90;;;;;;4435735;32;20603;-66
2022/01/04 08:59:57;;;;;;;453.17;431.17;;;8.70;99.90;;;;;;4435455;32;20153;-69
2022/01/04 09:02:27;;;;;;;435.03;414.27;;;8.60;99.90;;;;;;4436897;32;20481;-67
2022/01/04 09:04:55;;;;;;;453.07;431.23;;;8.60;99.90;;;;;;4435452;32;20178;-67
2022/01/04 09:07:22;;;;;;;433.27;412.67;;;8.60;99.90;;;;;;4435633;32;20154;-66
2022/01/04 09:10:00;;;;;;;436.20;415.10;;;8.60;99.90;;;;;;4435989;32;20594;-65
2022/01/04 09:12:38;;;;;;;427.87;406.90;;;8.60;99.90;;;;;;4435086;32;20262;-68
2022/01/04 09:15:28;;;;;;;452.73;431.13;;;8.60;99.90;;;;;;4435444;32;20221;-65
2022/01/04 09:20:50;;;;;;;428.90;408.63;;;8.70;99.90;;;;;;4442539;32;20193;-64
2022/01/04 09:23:22;;;;;;;420.10;400.73;;;8.70;99.90;;;;;;4440640;32;20170;-64
2022/01/04 09:25:52;;;;;;;419.17;399.60;;;8.80;99.90;;;;;;4434487;32;20189;-65
2022/01/04 09:28:21;;;;;;;405.30;387.00;;;8.80;99.90;;;;;;4435005;32;20156;-65
2022/01/04 09:30:53;;;;;;;429.33;409.90;;;8.80;99.90;;;;;;4435075;32;20196;-66
2022/01/04 09:33:23;;;;;;;447.43;427.20;;;8.80;99.90;;;;;;4434768;32;20152;-66
2022/01/04 09:35:50;;;;;;;442.13;422.10;;;8.80;99.90;;;;;;4434548;32;20162;-66
2022/01/04 09:38:18;;;;;;;444.50;424.53;;;8.90;99.90;;;;;;4434954;32;20249;-65
2022/01/04 09:40:48;;;;;;;427.60;408.50;;;8.90;99.90;;;;;;4434387;32;20524;-65
2022/01/04 09:43:20;;;;;;;433.47;413.73;;;8.90;99.90;;;;;;4434574;32;20548;-66
2022/01/04 09:45:47;;;;;;;465.27;443.93;;;8.80;99.90;;;;;;4434825;32;20171;-65
2022/01/04 09:48:14;;;;;;;436.80;417.23;;;8.70;99.90;;;;;;4438311;32;20178;-66
2022/01/04 09:50:43;;;;;;;466.10;444.03;;;8.70;99.90;;;;;;4445344;32;20627;-65
2022/01/04 09:53:12;;;;;;;474.20;452.20;;;8.60;99.90;;;;;;4450469;32;20163;-71
2022/01/04 09:55:42;;;;;;;468.83;447.37;;;8.70;99.90;;;;;;4436275;32;20230;-68
2022/01/04 09:58:10;;;;;;;467.33;445.43;;;8.70;99.90;;;;;;4434881;32;20146;-67
2022/01/04 10:00:42;;;;;;;466.17;444.47;;;8.70;99.90;;;;;;4434603;32;20156;-70
2022/01/04 10:03:28;;;;;;;442.40;422.13;;;8.70;99.90;;;;;;4436511;32;20470;-69
2022/01/04 10:06:02;;;;;;;415.63;396.77;;;8.80;99.90;;;;;;4434616;32;20192;-68
2022/01/04 10:08:31;;;;;;;426.50;407.63;;;8.80;99.90;;;;;;4434536;32;20219;-65
2022/01/04 10:11:08;;;;;;;428.43;409.30;;;8.90;99.90;;;;;;4432198;32;20578;-65
2022/01/04 10:13:38;;;;;;;442.17;422.70;;;8.80;99.90;;;;;;4437508;32;20208;-65
2022/01/04 10:16:15;;;;;;;444.73;424.63;;;8.90;99.90;;;;;;4437874;32;20476;-66
2022/01/04 10:18:51;;;;;;;446.73;426.03;;;8.90;99.90;;;;;;4437970;32;20151;-67
2022/01/04 10:21:22;;;;;;;450.57;429.97;;;8.90;99.90;;;;;;4439003;32;20224;-65
2022/01/04 10:23:54;;;;;;;473.23;451.63;;;8.90;99.90;;;;;;4439459;32;20592;-65
2022/01/04 10:26:29;;;;;;;428.13;408.90;;;9.00;99.90;;;;;;4447231;32;20179;-65
2022/01/04 10:28:56;;;;;;;448.57;428.13;;;8.90;99.90;;;;;;4438115;32;20180;-65
2022/01/04 10:31:25;;;;;;;459.97;438.97;;;9.00;99.90;;;;;;4438193;32;20598;-65
2022/01/04 10:33:56;;;;;;;437.93;418.07;;;8.90;99.90;;;;;;4438365;32;20195;-65
2022/01/04 10:36:25;;;;;;;421.40;401.90;;;8.90;99.90;;;;;;4437744;32;20181;-65
2022/01/04 10:38:52;;;;;;;446.93;426.73;;;8.90;99.90;;;;;;4438474;32;20148;-65
2022/01/04 10:41:25;;;;;;;428.87;409.43;;;8.90;99.90;;;;;;4437589;32;20145;-65
2022/01/04 10:43:54;;;;;;;463.33;442.37;;;8.80;99.90;;;;;;4437677;32;20501;-66
2022/01/04 10:46:33;;;;;;;440.37;420.40;;;8.80;99.90;;;;;;4437330;32;20158;-67
2022/01/04 10:49:14;;;;;;;456.90;436.20;;;8.80;99.90;;;;;;4437176;32;20160;-66
2022/01/04 10:51:43;;;;;;;461.23;440.27;;;8.90;99.90;;;;;;4436678;32;20151;-66
2022/01/04 10:54:21;;;;;;;444.13;423.77;;;8.80;99.90;;;;;;4437182;32;20516;-67
2022/01/04 10:57:06;;;;;;;467.40;445.87;;;8.70;99.90;;;;;;4435441;32;20182;-66
2022/01/04 10:59:33;;;;;;;459.30;438.17;;;8.80;99.90;;;;;;4436681;32;20200;-67
2022/01/04 11:02:05;;;;;;;467.70;445.50;;;8.90;99.90;;;;;;4437252;32;20225;-66
2022/01/04 11:04:32;;;;;;;451.30;430.17;;;9.00;99.90;;;;;;4437432;32;20163;-65
2022/01/04 11:07:00;;;;;;;437.87;417.73;;;9.00;99.90;;;;;;4437220;32;20194;-67
2022/01/04 11:09:29;;;;;;;461.73;439.67;;;9.00;99.90;;;;;;4436848;32;20203;-65
2022/01/04 11:11:56;;;;;;;468.47;446.13;;;9.10;99.90;;;;;;4450040;32;20161;-66
2022/01/04 11:14:29;;;;;;;436.87;416.73;;;9.30;99.90;;;;;;4437157;32;20151;-67
2022/01/04 11:16:57;;;;;;;450.80;429.77;;;9.30;99.90;;;;;;4437185;32;20174;-65
2022/01/04 11:19:28;;;;;;;427.27;407.50;;;9.40;99.90;;;;;;4437104;32;20158;-66
2022/01/04 11:21:58;;;;;;;438.03;417.17;;;9.40;99.90;;;;;;4436064;32;21813;-65
2022/01/04 11:24:25;;;;;;;433.17;413.30;;;9.40;99.90;;;;;;4439271;32;20638;-66
2022/01/04 11:26:57;;;;;;;439.00;418.67;;;9.30;99.90;;;;;;4436968;32;20178;-67
2022/01/04 11:29:35;;;;;;;443.07;422.13;;;9.20;99.90;;;;;;4437309;32;20153;-66
2022/01/04 11:32:08;;;;;;;477.03;454.60;;;9.20;99.90;;;;;;4437075;32;20485;-67
2022/01/04 11:35:03;;;;;;;459.23;437.70;;;9.20;99.90;;;;;;4437037;32;20155;-67
2022/01/04 11:37:30;;;;;;;466.20;444.93;;;9.10;99.90;;;;;;4439636;32;20487;-67
2022/01/04 11:39:57;;;;;;;462.87;441.77;;;9.20;99.90;;;;;;4437114;32;20151;-67
2022/01/04 11:42:42;;;;;;;458.27;437.23;;;9.30;99.90;;;;;;4434674;32;20151;-66
2022/01/04 11:45:11;;;;;;;456.10;435.13;;;9.30;99.90;;;;;;4435678;32;20215;-65
2022/01/04 11:47:41;;;;;;;464.33;442.63;;;9.40;99.90;;;;;;4436010;32;20240;-66
2022/01/04 11:50:13;;;;;;;454.53;433.90;;;9.50;99.90;;;;;;4436097;32;20155;-67
2022/01/04 11:52:42;;;;;;;448.53;428.70;;;9.30;99.90;;;;;;4433842;32;20233;-65
2022/01/04 11:55:22;;;;;;;444.27;424.13;;;9.30;99.90;;;;;;4435905;32;20261;-69
2022/01/04 11:57:48;;;;;;;470.13;448.87;;;9.20;99.90;;;;;;4435114;32;20670;-67
2022/01/04 12:00:25;;;;;;;449.60;429.30;;;8.90;99.90;;;;;;4434731;32;20242;-65
2022/01/04 12:03:02;;;;;;;462.47;441.90;;;8.80;99.90;;;;;;4435276;32;20147;-66
2022/01/04 12:05:31;;;;;;;464.77;444.00;;;8.60;99.90;;;;;;4435223;32;20270;-65
2022/01/04 12:07:59;;;;;;;480.30;458.43;;;8.50;99.90;;;;;;4436954;32;20580;-66
2022/01/04 12:10:38;;;;;;;445.80;425.77;;;8.40;99.90;;;;;;4435781;32;20168;-65
2022/01/04 12:13:27;;;;;;;484.40;462.60;;;8.50;99.90;;;;;;4435128;32;20212;-66
2022/01/04 12:16:03;;;;;;;450.77;430.40;;;8.50;99.90;;;;;;4435640;32;20173;-68
2022/01/04 12:19:03;;;;;;;469.73;448.43;;;8.60;99.90;;;;;;4436768;32;20159;-68
2022/01/04 12:21:43;;;;;;;452.97;432.80;;;8.70;99.90;;;;;;4434781;32;20154;-66
2022/01/04 12:24:13;;;;;;;447.13;427.27;;;8.70;99.90;;;;;;4433754;32;20239;-69
2022/01/04 12:26:45;;;;;;;469.73;449.00;;;8.80;99.90;;;;;;4433890;32;20591;-66
2022/01/04 12:29:24;;;;;;;478.00;456.47;;;8.80;99.90;;;;;;4434904;32;20148;-66
2022/01/04 12:31:54;;;;;;;506.23;482.97;;;8.80;99.90;;;;;;4433755;32;20570;-66
2022/01/04 12:34:38;;;;;;;463.00;442.43;;;8.50;99.90;;;;;;4433872;32;20201;-67
2022/01/04 12:37:09;;;;;;;469.27;448.07;;;8.20;99.90;;;;;;4435371;32;20205;-66
2022/01/04 12:39:41;;;;;;;497.10;474.33;;;8.10;99.90;;;;;;4436160;32;20623;-66
2022/01/04 12:42:10;;;;;;;458.20;437.67;;;8.20;99.90;;;;;;4436098;32;20163;-66
2022/01/04 12:44:41;;;;;;;480.10;458.57;;;8.30;99.90;;;;;;4436559;32;20175;-70
2022/01/04 12:47:24;;;;;;;488.77;467.03;;;8.10;99.90;;;;;;4434721;32;20189;-67
2022/01/04 12:49:54;;;;;;;496.53;474.03;;;8.10;99.90;;;;;;4438081;32;20573;-66
2022/01/04 12:52:24;;;;;;;486.87;464.90;;;7.90;99.90;;;;;;4434118;32;20596;-66
2022/01/04 12:54:51;;;;;;;475.33;454.20;;;8.00;99.90;;;;;;4435897;32;20211;-66
2022/01/04 12:57:21;;;;;;;451.00;431.00;;;8.00;99.90;;;;;;4437195;32;20178;-66
2022/01/04 12:59:56;;;;;;;480.00;458.30;;;8.00;99.90;;;;;;4439713;32;20159;-66
2022/01/04 13:02:25;;;;;;;482.27;460.70;;;8.00;99.90;;;;;;4439335;32;20174;-68
2022/01/04 13:04:54;;;;;;;474.30;453.03;;;8.00;99.90;;;;;;4435054;32;20215;-66
2022/01/04 13:07:28;;;;;;;459.40;438.30;;;8.30;99.90;;;;;;4436263;32;20591;-67
2022/01/04 13:10:01;;;;;;;485.33;463.17;;;8.10;99.90;;;;;;4435396;32;20176;-67
2022/01/04 13:12:35;;;;;;;479.07;457.60;;;8.10;99.90;;;;;;4435100;32;20513;-64
2022/01/04 13:15:07;;;;;;;510.77;487.67;;;8.00;99.90;;;;;;4435638;32;20553;-69
2022/01/04 13:17:37;;;;;;;488.30;466.17;;;8.00;99.90;;;;;;4435171;32;20169;-65
2022/01/04 13:20:06;;;;;;;504.37;481.80;;;7.80;99.90;;;;;;4436740;32;20155;-65